createdAt,value
2019-01-14T00:03:05.791Z,95.90
2019-01-14T00:05:36.392Z,95.94
2019-01-14T00:08:06.669Z,95.98
2019-01-14T00:10:56.385Z,95.81
2019-01-14T00:13:26.745Z,95.81
2019-01-14T00:15:57.334Z,95.85
2019-01-14T00:18:28.810Z,95.66
2019-01-14T00:21:18.642Z,95.27
2019-01-14T00:23:49.200Z,95.27
2019-01-14T00:26:19.365Z,95.20
2019-01-14T00:28:49.511Z,95.66
2019-01-14T00:31:19.724Z,95.54
2019-01-14T00:33:50.214Z,95.81
2019-01-14T00:36:20.268Z,96.02
2019-01-14T00:38:50.468Z,96.38
2019-01-14T00:41:20.638Z,96.73
2019-01-14T00:47:08.678Z,97.49
2019-01-14T00:49:38.796Z,97.49
2019-01-14T00:52:09.419Z,97.42
2019-01-14T00:54:39.774Z,97.38
2019-01-14T00:57:10.594Z,97.35
2019-01-14T00:59:40.834Z,97.39
2019-01-14T01:02:23.332Z,96.93
2019-01-14T01:04:56.221Z,96.93
2019-01-14T01:07:26.305Z,96.30
2019-01-14T01:09:56.594Z,96.11
2019-01-14T01:12:26.760Z,96.23
2019-01-14T01:15:17.184Z,96.62
2019-01-14T01:17:47.398Z,96.44
2019-01-14T01:23:20.337Z,96.20
2019-01-14T01:25:50.489Z,96.75
2019-01-14T01:28:20.943Z,96.60
2019-01-14T01:30:51.568Z,96.46
2019-01-14T01:33:21.703Z,95.81
2019-01-14T01:35:52.280Z,94.59
2019-01-14T01:38:22.486Z,94.50
2019-01-14T01:40:52.522Z,94.49
2019-01-14T01:43:22.690Z,94.33
2019-01-14T01:45:55.224Z,94.18
2019-01-14T01:48:25.589Z,93.92
2019-01-14T01:50:55.816Z,93.46
2019-01-14T01:53:27.719Z,93.10
2019-01-14T01:55:57.890Z,93.03
2019-01-14T01:58:47.520Z,92.87
2019-01-14T02:01:17.642Z,92.87
2019-01-14T02:03:48.242Z,92.61
2019-01-14T02:06:18.577Z,92.48
2019-01-14T02:08:48.731Z,92.29
2019-01-14T02:11:19.187Z,91.89
2019-01-14T02:16:26.971Z,91.77
2019-01-14T02:18:57.372Z,91.71
2019-01-14T02:21:27.649Z,91.81
2019-01-14T02:24:17.927Z,91.54
2019-01-14T02:27:07.733Z,90.67
2019-01-14T02:29:50.210Z,90.78
2019-01-14T02:32:20.432Z,90.78
2019-01-14T02:34:50.487Z,90.82
2019-01-14T02:37:20.736Z,90.41
2019-01-14T02:39:51.208Z,89.90
2019-01-14T02:42:21.221Z,89.24
2019-01-14T02:44:51.512Z,88.32
2019-01-14T02:47:21.772Z,87.63
2019-01-14T02:49:52.350Z,86.44
2019-01-14T02:52:22.562Z,86.42
2019-01-14T02:54:52.703Z,85.92
2019-01-14T02:57:23.213Z,85.95
2019-01-14T02:59:53.402Z,85.70
2019-01-14T03:02:23.427Z,85.16
2019-01-14T03:04:53.523Z,85.48
2019-01-14T03:07:23.888Z,85.48
2019-01-14T03:09:54.295Z,85.62
2019-01-14T03:12:24.549Z,84.20
2019-01-14T03:14:54.888Z,83.95
2019-01-14T03:17:46.537Z,83.20
2019-01-14T03:20:17.216Z,83.20
2019-01-14T03:22:47.631Z,83.37
2019-01-14T03:25:18.112Z,83.14
2019-01-14T03:28:09.642Z,82.17
2019-01-14T03:30:40.073Z,82.17
2019-01-14T03:33:10.277Z,81.88
2019-01-14T03:35:40.731Z,83.10
2019-01-14T03:38:30.085Z,84.03
2019-01-14T03:41:00.671Z,84.03
2019-01-14T03:43:30.743Z,84.71
2019-01-14T03:46:01.101Z,85.00
2019-01-14T03:48:31.466Z,85.23
2019-01-14T03:51:01.612Z,85.81
2019-01-14T03:53:32.054Z,86.89
2019-01-14T03:56:02.343Z,87.43
2019-01-14T03:58:32.493Z,86.66
2019-01-14T04:01:02.614Z,86.84
2019-01-14T04:03:32.711Z,85.65
2019-01-14T04:06:03.302Z,84.97
2019-01-14T04:08:33.435Z,84.75
2019-01-14T04:11:03.750Z,83.58
2019-01-14T04:13:34.187Z,82.61
2019-01-14T04:16:04.433Z,83.08
2019-01-14T04:18:34.710Z,82.86
2019-01-14T04:21:05.064Z,83.16
2019-01-14T04:23:54.464Z,85.35
2019-01-14T04:26:24.756Z,85.35
2019-01-14T04:28:55.286Z,86.64
2019-01-14T04:31:25.547Z,87.36
2019-01-14T04:33:55.655Z,87.82
2019-01-14T04:36:25.911Z,87.77
2019-01-14T04:38:56.779Z,87.62
2019-01-14T04:41:27.206Z,88.54
2019-01-14T04:43:57.410Z,87.73
2019-01-14T04:46:27.595Z,87.69
2019-01-14T04:48:57.749Z,86.87
2019-01-14T04:51:47.409Z,86.07
2019-01-14T04:54:19.881Z,86.07
2019-01-14T04:56:50.260Z,85.91
2019-01-14T04:59:20.615Z,85.95
2019-01-14T05:01:50.780Z,85.61
2019-01-14T05:04:21.129Z,84.58
2019-01-14T05:06:51.326Z,84.57
2019-01-14T05:09:21.508Z,84.17
2019-01-14T05:11:51.758Z,84.18
2019-01-14T05:14:22.211Z,84.50
2019-01-14T05:16:52.491Z,84.84
2019-01-14T05:19:23.023Z,84.96
2019-01-14T05:21:54.657Z,85.31
2019-01-14T05:24:24.809Z,85.70
2019-01-14T05:26:55.220Z,85.48
2019-01-14T05:29:44.587Z,85.69
2019-01-14T05:32:14.812Z,85.69
2019-01-14T05:34:45.357Z,85.53
2019-01-14T05:37:15.664Z,84.35
2019-01-14T05:39:46.126Z,85.05
2019-01-14T05:42:16.654Z,84.76
2019-01-14T05:44:46.871Z,84.66
2019-01-14T05:47:17.117Z,84.54
2019-01-14T05:50:09.002Z,84.85
2019-01-14T05:52:39.471Z,84.85
2019-01-14T05:55:48.819Z,84.04
2019-01-14T05:58:19.372Z,83.57
2019-01-14T06:00:50.407Z,83.65
2019-01-14T06:03:20.777Z,83.29
2019-01-14T06:05:51.220Z,82.59
2019-01-14T06:08:21.418Z,82.33
2019-01-14T06:10:51.631Z,82.48
2019-01-14T06:13:21.657Z,81.43
2019-01-14T06:15:51.893Z,80.97
2019-01-14T06:18:22.523Z,81.49
2019-01-14T06:20:52.559Z,81.33
2019-01-14T06:23:22.585Z,81.41
2019-01-14T06:25:52.845Z,82.75
2019-01-14T06:31:27.363Z,83.64
2019-01-14T06:33:57.472Z,84.24
2019-01-14T06:36:27.715Z,84.34
2019-01-14T06:38:58.379Z,83.20
2019-01-14T06:41:28.533Z,81.73
2019-01-14T06:43:58.599Z,80.69
2019-01-14T06:46:28.714Z,80.51
2019-01-14T06:48:59.229Z,79.69
2019-01-14T06:51:29.478Z,79.31
2019-01-14T06:53:59.697Z,78.27
2019-01-14T06:56:30.205Z,77.83
2019-01-14T06:59:00.511Z,75.54
2019-01-14T07:04:26.369Z,76.14
2019-01-14T07:06:56.632Z,77.14
2019-01-14T07:09:26.849Z,76.87
2019-01-14T07:11:57.633Z,77.50
2019-01-14T07:14:28.150Z,77.86
2019-01-14T07:16:58.169Z,77.79
2019-01-14T07:19:28.259Z,77.66
2019-01-14T07:21:58.379Z,77.49
2019-01-14T07:24:28.505Z,78.17
2019-01-14T07:26:58.805Z,78.33
2019-01-14T07:29:29.267Z,78.90
2019-01-14T07:31:59.418Z,78.87
2019-01-14T07:34:30.679Z,79.41
2019-01-14T07:37:01.204Z,79.17
2019-01-14T07:39:50.759Z,82.97
2019-01-14T07:42:21.303Z,82.97
2019-01-14T07:44:51.629Z,88.05
2019-01-14T07:47:21.864Z,90.16
2019-01-14T07:50:12.447Z,90.91
2019-01-14T07:52:42.911Z,90.91
2019-01-14T07:55:13.427Z,89.85
2019-01-14T07:57:43.717Z,89.92
2019-01-14T08:00:17.157Z,90.12
2019-01-14T08:02:47.439Z,90.15
2019-01-14T08:05:17.759Z,90.36
2019-01-14T08:07:48.486Z,89.83
2019-01-14T08:10:18.721Z,90.16
2019-01-14T08:12:49.239Z,94.35
2019-01-14T08:15:21.157Z,89.27
2019-01-14T08:17:51.711Z,88.78
2019-01-14T08:20:22.116Z,89.07
2019-01-14T08:22:52.521Z,88.29
2019-01-14T08:25:22.880Z,89.74
2019-01-14T08:27:53.374Z,89.02
2019-01-14T08:30:32.349Z,88.61
2019-01-14T08:33:02.657Z,86.93
2019-01-14T08:35:35.333Z,85.02
2019-01-14T08:38:05.750Z,84.32
2019-01-14T08:40:36.268Z,82.72
2019-01-14T08:48:41.339Z,78.66
2019-01-14T08:51:11.752Z,77.97
2019-01-14T08:53:42.054Z,78.07
2019-01-14T08:56:12.581Z,77.56
2019-01-14T08:58:42.616Z,77.25
2019-01-14T09:01:12.845Z,76.81
2019-01-14T09:03:43.353Z,75.47
2019-01-14T09:06:13.584Z,74.77
2019-01-14T09:08:43.760Z,71.51
2019-01-14T09:11:14.419Z,70.35
2019-01-14T09:13:44.615Z,71.02
2019-01-14T09:16:14.774Z,69.42
2019-01-14T09:19:04.160Z,67.47
2019-01-14T09:21:34.681Z,67.47
2019-01-14T09:24:05.202Z,67.79
2019-01-14T09:26:35.749Z,66.55
2019-01-14T09:29:06.259Z,66.80
2019-01-14T09:31:36.573Z,65.37
2019-01-14T09:36:44.462Z,66.72
2019-01-14T09:39:14.691Z,64.28
2019-01-14T09:41:45.232Z,65.33
2019-01-14T09:44:15.765Z,64.45
2019-01-14T09:46:46.270Z,65.73
2019-01-14T09:49:16.515Z,65.22
2019-01-14T09:51:46.627Z,64.61
2019-01-14T09:54:16.959Z,64.51
2019-01-14T09:59:38.418Z,65.36
2019-01-14T10:02:08.567Z,64.99
2019-01-14T10:04:38.638Z,66.70
2019-01-14T10:07:09.186Z,66.49
2019-01-14T10:09:39.236Z,67.12
2019-01-14T10:12:09.632Z,67.07
2019-01-14T10:14:39.824Z,67.26
2019-01-14T10:17:10.322Z,66.82
2019-01-14T10:19:40.548Z,66.73
2019-01-14T10:22:10.867Z,67.13
2019-01-14T10:24:41.227Z,66.67
2019-01-14T10:27:11.355Z,66.71
2019-01-14T10:29:41.568Z,67.60
2019-01-14T10:32:49.912Z,66.84
2019-01-14T10:35:20.539Z,66.84
2019-01-14T10:37:50.770Z,64.89
2019-01-14T10:40:22.868Z,64.79
2019-01-14T10:42:53.610Z,65.04
2019-01-14T10:45:24.895Z,63.86
2019-01-14T10:47:56.714Z,64.39
2019-01-14T10:50:27.221Z,65.28
2019-01-14T10:52:57.466Z,64.41
2019-01-14T10:55:27.715Z,64.69
2019-01-14T10:57:58.343Z,65.02
2019-01-14T11:00:30.196Z,64.78
2019-01-14T11:05:51.653Z,65.02
2019-01-14T11:08:21.795Z,65.37
2019-01-14T11:11:03.394Z,66.84
2019-01-14T11:13:33.712Z,66.84
2019-01-14T11:16:04.118Z,66.11
2019-01-14T11:18:34.425Z,66.11
2019-01-14T11:21:04.706Z,65.71
2019-01-14T11:23:35.275Z,65.61
2019-01-14T11:29:06.793Z,65.75
2019-01-14T11:31:37.121Z,66.76
2019-01-14T11:34:07.675Z,68.53
2019-01-14T11:36:37.984Z,71.12
2019-01-14T11:39:37.023Z,68.98
2019-01-14T11:42:07.576Z,67.53
2019-01-14T11:44:37.714Z,64.48
2019-01-14T11:47:08.227Z,63.75
2019-01-14T11:49:38.394Z,64.22
2019-01-14T11:52:08.877Z,62.76
2019-01-14T11:54:39.608Z,62.91
2019-01-14T11:57:10.039Z,64.04
2019-01-14T11:59:41.233Z,63.93
2019-01-14T12:02:12.045Z,64.23
2019-01-14T12:04:42.398Z,62.95
2019-01-14T12:07:12.654Z,62.99
2019-01-14T12:09:42.759Z,62.91
2019-01-14T12:12:13.479Z,64.06
2019-01-14T12:14:43.697Z,66.84
2019-01-14T12:17:14.283Z,66.41
2019-01-14T12:19:44.694Z,66.26
2019-01-14T12:22:15.126Z,66.96
2019-01-14T12:24:45.149Z,66.16
2019-01-14T12:27:15.510Z,65.00
2019-01-14T12:29:45.628Z,64.57
2019-01-14T12:32:15.781Z,62.51
2019-01-14T12:34:46.148Z,61.34
2019-01-14T12:37:16.550Z,61.13
2019-01-14T12:39:46.606Z,61.29
2019-01-14T12:42:16.838Z,61.98
2019-01-14T12:44:47.552Z,62.46
2019-01-14T12:47:17.648Z,61.05
2019-01-14T12:49:48.069Z,58.44
2019-01-14T12:52:18.388Z,55.98
2019-01-14T12:54:48.559Z,55.97
2019-01-14T12:57:18.743Z,55.38
2019-01-14T12:59:49.152Z,54.96
2019-01-14T13:02:19.300Z,53.11
2019-01-14T13:04:49.505Z,51.74
2019-01-14T13:07:19.646Z,53.13
2019-01-14T13:09:49.708Z,53.11
2019-01-14T13:12:20.371Z,52.35
2019-01-14T13:14:50.433Z,51.09
2019-01-14T13:17:20.580Z,51.04
2019-01-14T13:19:50.799Z,50.34
2019-01-14T13:22:21.233Z,50.96
2019-01-14T13:24:51.485Z,50.53
2019-01-14T13:27:21.799Z,50.97
2019-01-14T13:29:52.653Z,51.76
2019-01-14T13:32:23.179Z,50.77
2019-01-14T13:34:53.482Z,51.74
2019-01-14T13:37:23.739Z,52.38
2019-01-14T13:39:53.863Z,51.56
2019-01-14T13:42:24.324Z,52.24
2019-01-14T13:44:54.552Z,55.61
2019-01-14T13:47:38.711Z,59.44
2019-01-14T13:53:20.072Z,56.82
2019-01-14T13:55:50.230Z,55.10
2019-01-14T13:58:20.512Z,54.80
2019-01-14T14:00:50.788Z,52.77
2019-01-14T14:03:21.079Z,51.66
2019-01-14T14:05:51.255Z,50.54
2019-01-14T14:08:21.370Z,50.44
2019-01-14T14:10:51.573Z,49.17
2019-01-14T14:13:21.846Z,48.54
2019-01-14T14:15:52.332Z,49.00
2019-01-14T14:18:24.427Z,48.58
2019-01-14T14:20:54.748Z,48.38
2019-01-14T14:23:25.347Z,48.44
2019-01-14T14:25:55.544Z,48.92
2019-01-14T14:28:25.761Z,49.35
2019-01-14T14:30:56.274Z,48.75
2019-01-14T14:33:26.601Z,48.18
2019-01-14T14:35:57.157Z,49.69
2019-01-14T14:38:27.405Z,50.06
2019-01-14T14:40:57.555Z,49.09
2019-01-14T14:43:27.664Z,48.87
2019-01-14T14:45:57.809Z,50.32
2019-01-14T14:48:28.195Z,50.46
2019-01-14T14:50:58.647Z,51.27
2019-01-14T14:53:28.980Z,52.09
2019-01-14T14:55:59.421Z,59.14
2019-01-14T14:58:29.726Z,68.14
2019-01-14T15:01:00.239Z,73.73
2019-01-14T15:03:30.520Z,77.18
2019-01-14T15:06:00.661Z,80.36
2019-01-14T15:08:31.054Z,84.78
2019-01-14T15:11:01.700Z,90.95
2019-01-14T15:13:32.283Z,93.72
2019-01-14T15:16:22.600Z,95.68
2019-01-14T15:18:52.949Z,95.90
2019-01-14T15:21:23.097Z,94.92
2019-01-14T15:23:53.823Z,94.37
2019-01-14T15:26:24.270Z,92.54
2019-01-14T15:28:54.460Z,91.22
2019-01-14T15:31:24.901Z,90.26
2019-01-14T15:33:55.475Z,88.35
2019-01-14T15:36:25.689Z,85.99
2019-01-14T15:38:55.812Z,85.99
2019-01-14T15:41:26.640Z,84.80
2019-01-14T15:43:57.096Z,83.27
2019-01-14T15:46:28.771Z,82.23
2019-01-14T15:48:59.153Z,81.26
2019-01-14T15:51:29.294Z,80.64
2019-01-14T15:53:59.766Z,80.31
2019-01-14T15:56:31.915Z,79.43
2019-01-14T15:59:02.587Z,77.65
2019-01-14T16:01:32.827Z,77.19
2019-01-14T16:04:03.147Z,77.10
2019-01-14T16:06:33.367Z,76.95
2019-01-14T16:09:04.522Z,76.77
2019-01-14T16:11:34.960Z,76.63
2019-01-14T16:14:05.717Z,76.46
2019-01-14T16:16:36.204Z,76.69
2019-01-14T16:19:07.814Z,76.83
2019-01-14T16:21:38.372Z,77.50
2019-01-14T16:24:08.618Z,77.62
2019-01-14T16:26:38.626Z,77.43
2019-01-14T16:29:08.743Z,78.38
2019-01-14T16:31:39.244Z,78.82
2019-01-14T16:34:09.530Z,79.14
2019-01-14T16:36:39.679Z,79.22
2019-01-14T16:39:10.711Z,79.82
2019-01-14T16:41:41.106Z,79.53
2019-01-14T16:44:11.465Z,79.12
2019-01-14T16:46:41.749Z,78.59
2019-01-14T16:49:12.168Z,78.08
2019-01-14T16:51:42.391Z,78.14
2019-01-14T16:54:12.927Z,77.71
2019-01-14T16:56:43.513Z,77.75
2019-01-14T16:59:13.656Z,76.81
2019-01-14T17:01:44.308Z,75.51
2019-01-14T17:04:14.494Z,75.80
2019-01-14T17:06:44.716Z,75.45
2019-01-14T17:09:15.224Z,75.57
2019-01-14T17:11:45.470Z,75.16
2019-01-14T17:14:15.778Z,75.08
2019-01-14T17:17:05.342Z,75.26
2019-01-14T17:19:35.721Z,74.86
2019-01-14T17:22:06.465Z,74.57
2019-01-14T17:24:36.837Z,74.78
2019-01-14T17:27:07.402Z,73.92
2019-01-14T17:29:37.885Z,74.39
2019-01-14T17:32:27.218Z,73.91
2019-01-14T17:34:58.263Z,73.91
2019-01-14T17:37:28.493Z,74.33
2019-01-14T17:42:55.188Z,74.13
2019-01-14T17:45:25.598Z,73.82
2019-01-14T17:47:55.794Z,74.02
2019-01-14T17:50:26.729Z,73.76
2019-01-14T17:52:57.270Z,73.80
2019-01-14T17:55:27.499Z,74.29
2019-01-14T17:57:57.721Z,74.15
2019-01-14T18:00:28.308Z,74.27
2019-01-14T18:03:12.698Z,74.65
2019-01-14T18:05:31.293Z,74.73
2019-01-14T18:08:01.553Z,74.82
2019-01-14T18:10:31.679Z,74.86
2019-01-14T18:13:02.259Z,75.46
2019-01-14T18:15:32.526Z,75.60
2019-01-14T18:18:02.669Z,75.81
2019-01-14T18:20:32.876Z,75.93
2019-01-14T18:23:03.478Z,76.20
2019-01-14T18:25:33.726Z,76.06
2019-01-14T18:28:06.800Z,76.32
2019-01-14T18:30:37.257Z,76.36
2019-01-14T18:33:07.473Z,76.59
2019-01-14T18:35:37.790Z,76.94
2019-01-14T18:38:08.297Z,76.80
2019-01-14T18:40:38.499Z,77.36
2019-01-14T18:43:08.674Z,77.57
2019-01-14T18:45:39.660Z,78.11
2019-01-14T18:48:09.862Z,78.15
2019-01-14T18:50:40.381Z,78.42
2019-01-14T18:53:10.547Z,78.36
2019-01-14T18:55:40.990Z,78.87
2019-01-14T18:58:11.403Z,79.24
2019-01-14T19:00:41.572Z,79.19
2019-01-14T19:03:11.737Z,79.24
2019-01-14T19:05:42.202Z,79.31
2019-01-14T19:08:12.305Z,79.72
2019-01-14T19:10:42.659Z,79.68
2019-01-14T19:13:12.936Z,79.70
2019-01-14T19:15:43.452Z,80.11
2019-01-14T19:18:13.597Z,79.94
2019-01-14T19:20:44.713Z,79.96
2019-01-14T19:23:15.143Z,79.95
2019-01-14T19:25:45.295Z,80.13
2019-01-14T19:28:15.804Z,79.89
2019-01-14T19:30:46.154Z,79.75
2019-01-14T19:33:16.600Z,79.71
2019-01-14T19:35:46.886Z,79.45
2019-01-14T19:38:17.526Z,79.27
2019-01-14T19:40:47.769Z,79.02
2019-01-14T19:43:18.156Z,78.81
2019-01-14T19:45:49.925Z,78.63
2019-01-14T19:48:20.497Z,78.64
2019-01-14T19:50:50.691Z,78.59
2019-01-14T19:53:21.232Z,78.36
2019-01-14T19:55:51.238Z,77.40
2019-01-14T19:58:21.412Z,77.49
2019-01-14T20:00:51.705Z,77.80
2019-01-14T20:03:21.866Z,77.78
2019-01-14T20:05:52.438Z,77.78
2019-01-14T20:08:23.670Z,77.51
2019-01-14T20:10:53.893Z,77.66
2019-01-14T20:13:24.298Z,77.28
2019-01-14T20:15:55.580Z,77.31
2019-01-14T20:18:25.829Z,77.23
2019-01-14T20:20:56.495Z,76.95
2019-01-14T20:23:26.541Z,76.95
2019-01-14T20:25:56.597Z,76.93
2019-01-14T20:28:27.162Z,76.84
2019-01-14T20:30:57.459Z,76.48
2019-01-14T20:33:27.662Z,76.60
2019-01-14T20:35:58.053Z,76.56
2019-01-14T20:38:28.301Z,76.41
2019-01-14T20:40:58.466Z,76.26
2019-01-14T20:43:28.838Z,76.12
2019-01-14T20:45:59.367Z,76.13
2019-01-14T20:48:29.667Z,76.10
2019-01-14T20:51:01.469Z,75.95
2019-01-14T20:53:31.661Z,75.77
2019-01-14T20:56:01.749Z,76.16
2019-01-14T20:58:32.381Z,75.86
2019-01-14T21:01:02.731Z,75.84
2019-01-14T21:03:38.324Z,75.68
2019-01-14T21:06:08.803Z,75.42
2019-01-14T21:08:39.171Z,74.97
2019-01-14T21:11:09.430Z,74.68
2019-01-14T21:13:39.691Z,74.59
2019-01-14T21:16:10.238Z,74.47
2019-01-14T21:18:40.409Z,74.47
2019-01-14T21:21:10.707Z,74.08
2019-01-14T21:23:41.279Z,74.10
2019-01-14T21:26:11.638Z,74.01
2019-01-14T21:28:41.757Z,73.82
2019-01-14T21:31:12.374Z,73.74
2019-01-14T21:34:03.045Z,73.40
2019-01-14T21:36:33.256Z,78.45
2019-01-14T21:39:03.568Z,72.65
2019-01-14T21:41:34.135Z,72.30
2019-01-14T21:44:04.290Z,72.25
2019-01-14T21:46:36.450Z,71.90
2019-01-14T21:49:06.706Z,72.18
2019-01-14T21:51:37.203Z,72.02
2019-01-14T21:54:07.722Z,72.26
2019-01-14T21:56:39.077Z,72.02
2019-01-14T21:59:10.386Z,71.97
2019-01-14T22:01:40.667Z,71.88
2019-01-14T22:04:10.976Z,71.73
2019-01-14T22:06:41.336Z,71.81
2019-01-14T22:12:13.000Z,72.01
2019-01-14T22:14:43.544Z,72.19
2019-01-14T22:17:14.821Z,72.45
2019-01-14T22:20:24.242Z,72.11
2019-01-14T22:22:56.993Z,72.11
2019-01-14T22:25:27.507Z,72.28
2019-01-14T22:27:57.837Z,72.43
2019-01-14T22:30:30.773Z,71.99
2019-01-14T22:33:01.261Z,72.09
2019-01-14T22:35:31.483Z,72.54
2019-01-14T22:38:01.748Z,72.42
2019-01-14T22:40:32.235Z,72.06
2019-01-14T22:43:04.257Z,72.19
2019-01-14T22:45:35.091Z,72.41
2019-01-14T22:48:05.417Z,73.03
2019-01-14T22:50:35.630Z,72.73
2019-01-14T22:53:05.823Z,72.83
2019-01-14T22:55:36.247Z,72.70
2019-01-14T22:58:06.758Z,73.05
2019-01-14T23:01:20.882Z,73.31
2019-01-14T23:03:53.158Z,73.49
2019-01-14T23:06:23.536Z,73.66
2019-01-14T23:08:53.631Z,73.57
2019-01-14T23:11:23.834Z,73.87
2019-01-14T23:13:54.111Z,73.90
2019-01-14T23:16:24.378Z,74.02
2019-01-14T23:18:54.776Z,74.07
2019-01-14T23:21:25.232Z,74.31
2019-01-14T23:23:55.326Z,74.52
2019-01-14T23:26:25.422Z,74.73
2019-01-14T23:28:55.490Z,74.56
2019-01-14T23:31:25.747Z,74.63
2019-01-14T23:34:15.192Z,74.85
2019-01-14T23:36:45.486Z,74.85
2019-01-14T23:39:35.132Z,74.64
2019-01-14T23:42:05.457Z,74.18
2019-01-14T23:44:35.665Z,74.15
2019-01-14T23:47:06.103Z,74.23
2019-01-14T23:49:36.234Z,74.37
2019-01-14T23:52:06.588Z,74.63
2019-01-14T23:54:37.266Z,74.44
2019-01-14T23:57:08.707Z,74.30
2019-01-14T23:59:38.812Z,74.27
